sensor_id;sensor_type;location;lat;lon;timestamp;temperature;humidity
14317;DHT22;7242;50.858;6.586;2022-07-06T00:00:20;16.90;99.90
14317;DHT22;7242;50.858;6.586;2022-07-06T00:03:21;16.90;99.90
14317;DHT22;7242;50.858;6.586;2022-07-06T00:06:22;16.90;99.90
14317;DHT22;7242;50.858;6.586;2022-07-06T00:09:23;16.90;99.90
14317;DHT22;7242;50.858;6.586;2022-07-06T00:12:24;16.90;99.90
14317;DHT22;7242;50.858;6.586;2022-07-06T00:15:24;16.80;99.90
14317;DHT22;7242;50.858;6.586;2022-07-06T00:18:25;16.80;99.90
14317;DHT22;7242;50.858;6.586;2022-07-06T00:21:26;16.60;99.90
14317;DHT22;7242;50.858;6.586;2022-07-06T00:24:27;16.60;99.90
14317;DHT22;7242;50.858;6.586;2022-07-06T00:27:27;16.50;99.90
14317;DHT22;7242;50.858;6.586;2022-07-06T00:30:28;16.50;99.90
14317;DHT22;7242;50.858;6.586;2022-07-06T00:33:29;16.40;99.90
14317;DHT22;7242;50.858;6.586;2022-07-06T00:36:29;16.40;99.90
14317;DHT22;7242;50.858;6.586;2022-07-06T00:39:30;16.30;99.90
14317;DHT22;7242;50.858;6.586;2022-07-06T00:42:41;16.30;99.90
14317;DHT22;7242;50.858;6.586;2022-07-06T00:45:43;16.20;99.90
14317;DHT22;7242;50.858;6.586;2022-07-06T00:48:44;16.20;99.90
14317;DHT22;7242;50.858;6.586;2022-07-06T00:51:45;16.20;99.90
14317;DHT22;7242;50.858;6.586;2022-07-06T00:54:46;16.20;99.90
14317;DHT22;7242;50.858;6.586;2022-07-06T00:57:48;16.10;99.90
14317;DHT22;7242;50.858;6.586;2022-07-06T01:00:49;16.10;99.90
14317;DHT22;7242;50.858;6.586;2022-07-06T01:03:49;16.10;99.90
14317;DHT22;7242;50.858;6.586;2022-07-06T01:06:50;16.00;99.90
14317;DHT22;7242;50.858;6.586;2022-07-06T01:09:51;16.00;99.90
14317;DHT22;7242;50.858;6.586;2022-07-06T01:12:52;16.10;99.90
14317;DHT22;7242;50.858;6.586;2022-07-06T01:15:53;16.00;99.90
14317;DHT22;7242;50.858;6.586;2022-07-06T01:18:54;16.10;99.90
14317;DHT22;7242;50.858;6.586;2022-07-06T01:21:56;16.00;99.90
14317;DHT22;7242;50.858;6.586;2022-07-06T01:24:56;16.00;99.90
14317;DHT22;7242;50.858;6.586;2022-07-06T01:27:57;15.90;99.90
14317;DHT22;7242;50.858;6.586;2022-07-06T01:30:58;15.90;99.90
14317;DHT22;7242;50.858;6.586;2022-07-06T01:33:59;15.90;99.90
14317;DHT22;7242;50.858;6.586;2022-07-06T01:37:00;15.90;99.90
14317;DHT22;7242;50.858;6.586;2022-07-06T01:40:03;15.90;99.90
14317;DHT22;7242;50.858;6.586;2022-07-06T01:43:04;15.90;99.90
14317;DHT22;7242;50.858;6.586;2022-07-06T01:46:05;15.80;99.90
14317;DHT22;7242;50.858;6.586;2022-07-06T01:49:06;15.80;99.90
14317;DHT22;7242;50.858;6.586;2022-07-06T01:52:08;15.60;99.90
14317;DHT22;7242;50.858;6.586;2022-07-06T01:55:10;15.40;99.90
14317;DHT22;7242;50.858;6.586;2022-07-06T01:58:12;15.30;99.90
14317;DHT22;7242;50.858;6.586;2022-07-06T02:01:15;15.20;99.90
14317;DHT22;7242;50.858;6.586;2022-07-06T02:04:22;15.20;99.90
14317;DHT22;7242;50.858;6.586;2022-07-06T02:07:23;15.10;99.90
14317;DHT22;7242;50.858;6.586;2022-07-06T02:10:23;14.90;99.90
14317;DHT22;7242;50.858;6.586;2022-07-06T02:17:47;14.80;99.90
14317;DHT22;7242;50.858;6.586;2022-07-06T02:20:47;14.60;99.90
14317;DHT22;7242;50.858;6.586;2022-07-06T02:23:48;14.50;99.90
14317;DHT22;7242;50.858;6.586;2022-07-06T02:26:50;14.40;99.90
14317;DHT22;7242;50.858;6.586;2022-07-06T02:29:51;14.40;99.90
14317;DHT22;7242;50.858;6.586;2022-07-06T02:32:52;14.30;99.90
14317;DHT22;7242;50.858;6.586;2022-07-06T02:35:53;14.20;99.90
14317;DHT22;7242;50.858;6.586;2022-07-06T02:38:55;14.10;99.90
14317;DHT22;7242;50.858;6.586;2022-07-06T02:41:56;13.90;99.90
14317;DHT22;7242;50.858;6.586;2022-07-06T02:44:56;13.80;99.90
14317;DHT22;7242;50.858;6.586;2022-07-06T02:47:57;13.80;99.90
14317;DHT22;7242;50.858;6.586;2022-07-06T02:50:59;13.80;99.90
14317;DHT22;7242;50.858;6.586;2022-07-06T02:54:00;13.80;99.90
14317;DHT22;7242;50.858;6.586;2022-07-06T02:57:01;13.80;99.90
14317;DHT22;7242;50.858;6.586;2022-07-06T03:00:01;13.80;99.90
14317;DHT22;7242;50.858;6.586;2022-07-06T03:03:05;13.70;99.90
14317;DHT22;7242;50.858;6.586;2022-07-06T03:06:06;13.70;99.90
14317;DHT22;7242;50.858;6.586;2022-07-06T03:09:07;13.60;99.90
14317;DHT22;7242;50.858;6.586;2022-07-06T03:12:08;13.50;99.90
14317;DHT22;7242;50.858;6.586;2022-07-06T03:15:10;13.50;99.90
14317;DHT22;7242;50.858;6.586;2022-07-06T03:18:12;13.40;99.90
14317;DHT22;7242;50.858;6.586;2022-07-06T03:21:13;13.40;99.90
14317;DHT22;7242;50.858;6.586;2022-07-06T03:24:14;13.50;99.90
14317;DHT22;7242;50.858;6.586;2022-07-06T03:27:15;13.40;99.90
14317;DHT22;7242;50.858;6.586;2022-07-06T03:30:16;13.30;99.90
14317;DHT22;7242;50.858;6.586;2022-07-06T03:33:23;13.40;99.90
14317;DHT22;7242;50.858;6.586;2022-07-06T03:36:24;13.30;99.90
14317;DHT22;7242;50.858;6.586;2022-07-06T03:39:26;13.50;99.90
14317;DHT22;7242;50.858;6.586;2022-07-06T03:42:27;13.50;99.90
14317;DHT22;7242;50.858;6.586;2022-07-06T03:45:28;13.40;99.90
14317;DHT22;7242;50.858;6.586;2022-07-06T03:48:30;13.50;99.90
14317;DHT22;7242;50.858;6.586;2022-07-06T03:51:31;13.50;99.90
14317;DHT22;7242;50.858;6.586;2022-07-06T03:54:32;13.50;99.90
14317;DHT22;7242;50.858;6.586;2022-07-06T03:57:34;13.50;99.90
14317;DHT22;7242;50.858;6.586;2022-07-06T04:00:37;13.60;99.90
14317;DHT22;7242;50.858;6.586;2022-07-06T04:04:02;13.60;99.90
14317;DHT22;7242;50.858;6.586;2022-07-06T04:07:04;13.60;99.90
14317;DHT22;7242;50.858;6.586;2022-07-06T04:10:07;13.60;99.90
14317;DHT22;7242;50.858;6.586;2022-07-06T04:13:08;13.60;99.90
14317;DHT22;7242;50.858;6.586;2022-07-06T04:16:09;13.60;99.90
14317;DHT22;7242;50.858;6.586;2022-07-06T04:19:10;13.60;99.90
14317;DHT22;7242;50.858;6.586;2022-07-06T04:22:11;13.60;99.90
14317;DHT22;7242;50.858;6.586;2022-07-06T04:25:12;13.60;99.90
14317;DHT22;7242;50.858;6.586;2022-07-06T04:28:13;13.70;99.90
14317;DHT22;7242;50.858;6.586;2022-07-06T04:31:14;13.70;99.90
14317;DHT22;7242;50.858;6.586;2022-07-06T04:34:18;13.70;99.90
14317;DHT22;7242;50.858;6.586;2022-07-06T04:37:18;13.70;99.90
14317;DHT22;7242;50.858;6.586;2022-07-06T04:40:19;13.70;99.90
14317;DHT22;7242;50.858;6.586;2022-07-06T04:43:22;13.80;99.90
14317;DHT22;7242;50.858;6.586;2022-07-06T04:46:23;13.90;99.90
14317;DHT22;7242;50.858;6.586;2022-07-06T04:49:27;14.00;99.90
14317;DHT22;7242;50.858;6.586;2022-07-06T04:52:28;13.90;99.90
14317;DHT22;7242;50.858;6.586;2022-07-06T04:55:29;14.10;99.90
14317;DHT22;7242;50.858;6.586;2022-07-06T04:58:30;14.20;99.90
14317;DHT22;7242;50.858;6.586;2022-07-06T05:01:31;14.30;99.90
14317;DHT22;7242;50.858;6.586;2022-07-06T05:04:32;14.40;99.90
14317;DHT22;7242;50.858;6.586;2022-07-06T05:07:33;14.40;99.90
14317;DHT22;7242;50.858;6.586;2022-07-06T05:10:35;14.50;99.90
14317;DHT22;7242;50.858;6.586;2022-07-06T05:13:37;14.50;99.90
14317;DHT22;7242;50.858;6.586;2022-07-06T05:16:38;14.70;99.90
14317;DHT22;7242;50.858;6.586;2022-07-06T05:19:39;14.90;99.90
14317;DHT22;7242;50.858;6.586;2022-07-06T05:22:40;15.00;99.90
14317;DHT22;7242;50.858;6.586;2022-07-06T05:25:40;15.10;99.90
14317;DHT22;7242;50.858;6.586;2022-07-06T05:28:42;15.30;99.90
14317;DHT22;7242;50.858;6.586;2022-07-06T05:31:47;15.30;99.90
14317;DHT22;7242;50.858;6.586;2022-07-06T05:34:50;15.30;99.90
14317;DHT22;7242;50.858;6.586;2022-07-06T05:37:51;15.40;99.90
14317;DHT22;7242;50.858;6.586;2022-07-06T05:40:52;15.50;99.90
14317;DHT22;7242;50.858;6.586;2022-07-06T05:43:52;15.60;99.90
14317;DHT22;7242;50.858;6.586;2022-07-06T05:46:53;15.70;99.90
14317;DHT22;7242;50.858;6.586;2022-07-06T05:50:19;15.70;99.90
14317;DHT22;7242;50.858;6.586;2022-07-06T05:53:24;15.80;99.90
14317;DHT22;7242;50.858;6.586;2022-07-06T05:56:27;15.80;99.90
14317;DHT22;7242;50.858;6.586;2022-07-06T05:59:28;15.70;99.90
14317;DHT22;7242;50.858;6.586;2022-07-06T06:02:37;15.80;99.90
14317;DHT22;7242;50.858;6.586;2022-07-06T06:05:38;16.00;99.90
14317;DHT22;7242;50.858;6.586;2022-07-06T06:08:43;16.30;99.90
14317;DHT22;7242;50.858;6.586;2022-07-06T06:11:44;16.50;99.90
14317;DHT22;7242;50.858;6.586;2022-07-06T06:14:45;16.60;99.90
14317;DHT22;7242;50.858;6.586;2022-07-06T06:17:47;16.70;99.90
14317;DHT22;7242;50.858;6.586;2022-07-06T06:20:47;16.80;99.90
14317;DHT22;7242;50.858;6.586;2022-07-06T06:23:50;16.90;99.90
14317;DHT22;7242;50.858;6.586;2022-07-06T06:26:51;17.00;99.90
14317;DHT22;7242;50.858;6.586;2022-07-06T06:29:52;17.10;99.90
14317;DHT22;7242;50.858;6.586;2022-07-06T06:33:15;17.10;99.90
14317;DHT22;7242;50.858;6.586;2022-07-06T06:36:16;17.40;99.90
14317;DHT22;7242;50.858;6.586;2022-07-06T06:39:17;17.70;99.90
14317;DHT22;7242;50.858;6.586;2022-07-06T06:42:18;18.10;99.90
14317;DHT22;7242;50.858;6.586;2022-07-06T06:45:22;18.60;99.90
14317;DHT22;7242;50.858;6.586;2022-07-06T06:48:22;20.10;99.90
14317;DHT22;7242;50.858;6.586;2022-07-06T06:51:23;21.90;99.90
14317;DHT22;7242;50.858;6.586;2022-07-06T06:54:24;23.00;99.90
14317;DHT22;7242;50.858;6.586;2022-07-06T06:57:25;24.60;99.90
14317;DHT22;7242;50.858;6.586;2022-07-06T07:00:26;25.10;99.90
14317;DHT22;7242;50.858;6.586;2022-07-06T07:03:26;26.60;99.90
14317;DHT22;7242;50.858;6.586;2022-07-06T07:06:27;27.40;99.90
14317;DHT22;7242;50.858;6.586;2022-07-06T07:09:28;27.20;99.90
14317;DHT22;7242;50.858;6.586;2022-07-06T07:12:29;26.50;99.90
14317;DHT22;7242;50.858;6.586;2022-07-06T07:15:29;26.00;99.90
14317;DHT22;7242;50.858;6.586;2022-07-06T07:18:30;26.80;99.90
14317;DHT22;7242;50.858;6.586;2022-07-06T07:21:31;27.60;99.90
14317;DHT22;7242;50.858;6.586;2022-07-06T07:24:35;26.90;99.90
14317;DHT22;7242;50.858;6.586;2022-07-06T07:27:36;25.80;99.90
14317;DHT22;7242;50.858;6.586;2022-07-06T07:30:37;25.00;99.90
14317;DHT22;7242;50.858;6.586;2022-07-06T07:33:37;24.20;99.90
14317;DHT22;7242;50.858;6.586;2022-07-06T07:36:38;23.30;99.90
14317;DHT22;7242;50.858;6.586;2022-07-06T07:39:39;22.60;99.90
14317;DHT22;7242;50.858;6.586;2022-07-06T07:42:41;21.90;99.90
14317;DHT22;7242;50.858;6.586;2022-07-06T07:45:42;21.40;99.90
14317;DHT22;7242;50.858;6.586;2022-07-06T07:48:42;21.00;99.90
14317;DHT22;7242;50.858;6.586;2022-07-06T07:51:43;20.70;99.90
14317;DHT22;7242;50.858;6.586;2022-07-06T07:54:44;20.50;99.90
14317;DHT22;7242;50.858;6.586;2022-07-06T07:57:45;20.40;99.90
14317;DHT22;7242;50.858;6.586;2022-07-06T08:00:45;20.10;99.90
14317;DHT22;7242;50.858;6.586;2022-07-06T08:03:46;20.00;99.90
14317;DHT22;7242;50.858;6.586;2022-07-06T08:06:47;19.90;99.90
14317;DHT22;7242;50.858;6.586;2022-07-06T08:09:48;19.90;99.90
14317;DHT22;7242;50.858;6.586;2022-07-06T08:12:49;19.70;99.90
14317;DHT22;7242;50.858;6.586;2022-07-06T08:15:50;19.60;99.90
14317;DHT22;7242;50.858;6.586;2022-07-06T08:18:50;20.00;99.90
14317;DHT22;7242;50.858;6.586;2022-07-06T08:21:51;21.50;99.90
14317;DHT22;7242;50.858;6.586;2022-07-06T08:24:52;23.60;99.90
14317;DHT22;7242;50.858;6.586;2022-07-06T08:27:52;24.00;99.90
14317;DHT22;7242;50.858;6.586;2022-07-06T08:30:53;24.70;99.90
14317;DHT22;7242;50.858;6.586;2022-07-06T08:33:55;24.90;99.90
14317;DHT22;7242;50.858;6.586;2022-07-06T08:36:56;24.70;99.90
14317;DHT22;7242;50.858;6.586;2022-07-06T08:39:57;24.60;99.90
14317;DHT22;7242;50.858;6.586;2022-07-06T08:42:59;24.40;99.90
14317;DHT22;7242;50.858;6.586;2022-07-06T08:46:01;24.00;99.90
14317;DHT22;7242;50.858;6.586;2022-07-06T08:49:02;23.70;99.90
14317;DHT22;7242;50.858;6.586;2022-07-06T08:52:04;23.30;99.90
14317;DHT22;7242;50.858;6.586;2022-07-06T08:55:06;22.80;99.90
14317;DHT22;7242;50.858;6.586;2022-07-06T08:58:09;22.30;99.90
14317;DHT22;7242;50.858;6.586;2022-07-06T09:01:10;22.00;99.90
14317;DHT22;7242;50.858;6.586;2022-07-06T09:04:12;21.70;99.90
14317;DHT22;7242;50.858;6.586;2022-07-06T09:07:13;21.40;99.90
14317;DHT22;7242;50.858;6.586;2022-07-06T09:10:14;21.00;99.90
14317;DHT22;7242;50.858;6.586;2022-07-06T09:13:17;20.70;99.90
14317;DHT22;7242;50.858;6.586;2022-07-06T09:16:25;20.50;99.90
14317;DHT22;7242;50.858;6.586;2022-07-06T09:19:27;20.20;99.90
14317;DHT22;7242;50.858;6.586;2022-07-06T09:22:31;20.00;99.90
14317;DHT22;7242;50.858;6.586;2022-07-06T09:25:34;20.00;99.90
14317;DHT22;7242;50.858;6.586;2022-07-06T09:28:45;20.00;99.90
14317;DHT22;7242;50.858;6.586;2022-07-06T09:31:59;20.10;99.90
14317;DHT22;7242;50.858;6.586;2022-07-06T09:35:00;20.10;99.90
14317;DHT22;7242;50.858;6.586;2022-07-06T09:38:11;20.00;99.90
14317;DHT22;7242;50.858;6.586;2022-07-06T09:41:12;20.00;99.90
14317;DHT22;7242;50.858;6.586;2022-07-06T09:44:12;20.10;99.90
14317;DHT22;7242;50.858;6.586;2022-07-06T09:47:13;20.20;99.90
14317;DHT22;7242;50.858;6.586;2022-07-06T09:50:18;20.50;99.90
14317;DHT22;7242;50.858;6.586;2022-07-06T09:53:20;20.60;99.90
14317;DHT22;7242;50.858;6.586;2022-07-06T09:56:21;20.50;99.90
14317;DHT22;7242;50.858;6.586;2022-07-06T09:59:24;20.70;99.90
14317;DHT22;7242;50.858;6.586;2022-07-06T10:02:26;20.70;99.90
14317;DHT22;7242;50.858;6.586;2022-07-06T10:05:27;20.90;99.90
14317;DHT22;7242;50.858;6.586;2022-07-06T10:08:31;21.10;99.90
14317;DHT22;7242;50.858;6.586;2022-07-06T10:11:37;21.50;99.90
14317;DHT22;7242;50.858;6.586;2022-07-06T10:14:40;21.90;99.90
14317;DHT22;7242;50.858;6.586;2022-07-06T10:17:41;22.10;99.90
14317;DHT22;7242;50.858;6.586;2022-07-06T10:20:42;22.20;99.90
14317;DHT22;7242;50.858;6.586;2022-07-06T10:23:43;22.40;99.90
14317;DHT22;7242;50.858;6.586;2022-07-06T10:26:45;22.60;99.90
14317;DHT22;7242;50.858;6.586;2022-07-06T10:29:46;22.70;99.90
14317;DHT22;7242;50.858;6.586;2022-07-06T10:32:49;22.60;99.90
14317;DHT22;7242;50.858;6.586;2022-07-06T10:35:50;22.50;99.90
14317;DHT22;7242;50.858;6.586;2022-07-06T10:38:52;22.50;99.90
14317;DHT22;7242;50.858;6.586;2022-07-06T10:41:53;22.60;99.90
14317;DHT22;7242;50.858;6.586;2022-07-06T10:44:54;22.70;99.90
14317;DHT22;7242;50.858;6.586;2022-07-06T10:51:12;22.40;99.90
14317;DHT22;7242;50.858;6.586;2022-07-06T10:54:15;22.50;99.90
14317;DHT22;7242;50.858;6.586;2022-07-06T10:57:16;22.70;99.90
14317;DHT22;7242;50.858;6.586;2022-07-06T11:00:19;22.60;99.90
14317;DHT22;7242;50.858;6.586;2022-07-06T11:03:40;22.70;99.90
14317;DHT22;7242;50.858;6.586;2022-07-06T11:06:45;22.70;99.90
14317;DHT22;7242;50.858;6.586;2022-07-06T11:09:57;22.90;99.90
14317;DHT22;7242;50.858;6.586;2022-07-06T11:13:01;22.90;99.90
14317;DHT22;7242;50.858;6.586;2022-07-06T11:16:02;22.90;99.90
14317;DHT22;7242;50.858;6.586;2022-07-06T11:19:06;22.70;99.90
14317;DHT22;7242;50.858;6.586;2022-07-06T11:22:09;22.80;99.90
14317;DHT22;7242;50.858;6.586;2022-07-06T11:25:10;22.90;99.90
14317;DHT22;7242;50.858;6.586;2022-07-06T11:28:11;23.10;99.90
14317;DHT22;7242;50.858;6.586;2022-07-06T11:31:15;23.40;99.90
14317;DHT22;7242;50.858;6.586;2022-07-06T11:34:27;23.50;99.90
14317;DHT22;7242;50.858;6.586;2022-07-06T11:37:28;23.60;99.90
14317;DHT22;7242;50.858;6.586;2022-07-06T11:40:28;23.80;99.90
14317;DHT22;7242;50.858;6.586;2022-07-06T11:43:30;23.80;99.90
14317;DHT22;7242;50.858;6.586;2022-07-06T11:46:32;23.80;99.90
14317;DHT22;7242;50.858;6.586;2022-07-06T11:49:35;23.80;99.90
14317;DHT22;7242;50.858;6.586;2022-07-06T11:52:37;23.70;99.90
14317;DHT22;7242;50.858;6.586;2022-07-06T11:55:38;23.40;99.90
14317;DHT22;7242;50.858;6.586;2022-07-06T11:58:40;23.40;99.90
14317;DHT22;7242;50.858;6.586;2022-07-06T12:01:41;23.30;99.90
14317;DHT22;7242;50.858;6.586;2022-07-06T12:04:45;23.20;99.90
14317;DHT22;7242;50.858;6.586;2022-07-06T12:07:46;23.00;99.90
14317;DHT22;7242;50.858;6.586;2022-07-06T12:10:47;22.80;99.90
14317;DHT22;7242;50.858;6.586;2022-07-06T12:13:49;22.70;99.90
14317;DHT22;7242;50.858;6.586;2022-07-06T12:16:50;24.90;99.90
14317;DHT22;7242;50.858;6.586;2022-07-06T12:19:54;22.90;99.90
14317;DHT22;7242;50.858;6.586;2022-07-06T12:23:05;22.90;99.90
14317;DHT22;7242;50.858;6.586;2022-07-06T12:26:06;23.00;99.90
14317;DHT22;7242;50.858;6.586;2022-07-06T12:29:09;23.10;99.90
14317;DHT22;7242;50.858;6.586;2022-07-06T12:32:21;23.10;99.90
14317;DHT22;7242;50.858;6.586;2022-07-06T12:35:27;23.30;99.90
14317;DHT22;7242;50.858;6.586;2022-07-06T12:38:28;23.40;99.90
14317;DHT22;7242;50.858;6.586;2022-07-06T12:41:33;23.40;99.90
14317;DHT22;7242;50.858;6.586;2022-07-06T12:44:44;23.60;99.90
14317;DHT22;7242;50.858;6.586;2022-07-06T12:48:03;23.80;99.90
14317;DHT22;7242;50.858;6.586;2022-07-06T12:51:05;23.90;99.90
14317;DHT22;7242;50.858;6.586;2022-07-06T12:54:12;23.90;99.90
14317;DHT22;7242;50.858;6.586;2022-07-06T12:57:20;23.80;99.90
14317;DHT22;7242;50.858;6.586;2022-07-06T13:00:23;23.90;99.90
14317;DHT22;7242;50.858;6.586;2022-07-06T13:03:24;23.90;99.90
14317;DHT22;7242;50.858;6.586;2022-07-06T13:06:33;24.00;99.90
14317;DHT22;7242;50.858;6.586;2022-07-06T13:09:34;24.10;99.90
14317;DHT22;7242;50.858;6.586;2022-07-06T13:12:36;24.20;99.90
14317;DHT22;7242;50.858;6.586;2022-07-06T13:15:37;24.20;99.90
14317;DHT22;7242;50.858;6.586;2022-07-06T13:18:38;24.30;99.90
14317;DHT22;7242;50.858;6.586;2022-07-06T13:21:38;24.20;99.30
14317;DHT22;7242;50.858;6.586;2022-07-06T13:24:39;24.00;99.00
14317;DHT22;7242;50.858;6.586;2022-07-06T13:27:40;23.70;99.00
14317;DHT22;7242;50.858;6.586;2022-07-06T13:30:41;23.50;99.00
14317;DHT22;7242;50.858;6.586;2022-07-06T13:33:42;23.50;98.90
14317;DHT22;7242;50.858;6.586;2022-07-06T13:36:43;23.60;99.90
14317;DHT22;7242;50.858;6.586;2022-07-06T13:39:44;23.70;99.90
14317;DHT22;7242;50.858;6.586;2022-07-06T13:42:44;23.70;99.90
14317;DHT22;7242;50.858;6.586;2022-07-06T13:45:46;23.70;99.90
14317;DHT22;7242;50.858;6.586;2022-07-06T13:48:47;23.80;99.90
14317;DHT22;7242;50.858;6.586;2022-07-06T13:51:48;23.90;99.90
14317;DHT22;7242;50.858;6.586;2022-07-06T13:54:49;24.00;99.90
14317;DHT22;7242;50.858;6.586;2022-07-06T13:57:49;23.90;99.90
14317;DHT22;7242;50.858;6.586;2022-07-06T14:00:50;23.80;99.70
14317;DHT22;7242;50.858;6.586;2022-07-06T14:03:51;23.60;99.40
14317;DHT22;7242;50.858;6.586;2022-07-06T14:06:52;23.60;99.20
14317;DHT22;7242;50.858;6.586;2022-07-06T14:09:53;23.40;99.70
14317;DHT22;7242;50.858;6.586;2022-07-06T14:12:53;23.50;99.90
14317;DHT22;7242;50.858;6.586;2022-07-06T14:15:54;23.40;99.90
14317;DHT22;7242;50.858;6.586;2022-07-06T14:18:55;23.50;99.90
14317;DHT22;7242;50.858;6.586;2022-07-06T14:21:56;23.50;99.50
14317;DHT22;7242;50.858;6.586;2022-07-06T14:24:58;23.50;99.90
14317;DHT22;7242;50.858;6.586;2022-07-06T14:27:59;23.30;99.40
14317;DHT22;7242;50.858;6.586;2022-07-06T14:31:00;23.40;99.90
14317;DHT22;7242;50.858;6.586;2022-07-06T14:34:03;23.20;99.90
14317;DHT22;7242;50.858;6.586;2022-07-06T14:37:03;23.10;99.90
14317;DHT22;7242;50.858;6.586;2022-07-06T14:40:05;23.10;99.90
14317;DHT22;7242;50.858;6.586;2022-07-06T14:43:06;23.20;99.90
14317;DHT22;7242;50.858;6.586;2022-07-06T14:46:07;23.30;99.90
14317;DHT22;7242;50.858;6.586;2022-07-06T14:49:07;23.50;99.90
14317;DHT22;7242;50.858;6.586;2022-07-06T14:52:08;23.60;99.90
14317;DHT22;7242;50.858;6.586;2022-07-06T14:55:13;23.70;99.90
14317;DHT22;7242;50.858;6.586;2022-07-06T14:58:14;23.80;99.90
14317;DHT22;7242;50.858;6.586;2022-07-06T15:01:18;23.90;99.90
14317;DHT22;7242;50.858;6.586;2022-07-06T15:04:18;23.80;99.60
14317;DHT22;7242;50.858;6.586;2022-07-06T15:07:19;23.80;99.80
14317;DHT22;7242;50.858;6.586;2022-07-06T15:10:20;23.80;99.40
14317;DHT22;7242;50.858;6.586;2022-07-06T15:13:21;23.70;99.90
14317;DHT22;7242;50.858;6.586;2022-07-06T15:16:22;23.80;99.90
14317;DHT22;7242;50.858;6.586;2022-07-06T15:19:22;23.70;99.70
14317;DHT22;7242;50.858;6.586;2022-07-06T15:22:23;23.70;99.80
14317;DHT22;7242;50.858;6.586;2022-07-06T15:25:24;23.80;99.00
14317;DHT22;7242;50.858;6.586;2022-07-06T15:28:25;23.70;99.70
14317;DHT22;7242;50.858;6.586;2022-07-06T15:31:27;23.70;99.50
14317;DHT22;7242;50.858;6.586;2022-07-06T15:34:27;23.60;99.50
14317;DHT22;7242;50.858;6.586;2022-07-06T15:37:28;23.60;99.40
14317;DHT22;7242;50.858;6.586;2022-07-06T15:40:30;23.50;99.30
14317;DHT22;7242;50.858;6.586;2022-07-06T15:43:37;23.70;99.40
14317;DHT22;7242;50.858;6.586;2022-07-06T15:46:38;23.70;99.60
14317;DHT22;7242;50.858;6.586;2022-07-06T15:49:39;23.80;99.80
14317;DHT22;7242;50.858;6.586;2022-07-06T15:52:39;23.70;99.90
14317;DHT22;7242;50.858;6.586;2022-07-06T15:55:40;23.80;99.90
14317;DHT22;7242;50.858;6.586;2022-07-06T15:58:41;23.80;99.60
14317;DHT22;7242;50.858;6.586;2022-07-06T16:01:42;23.90;99.50
14317;DHT22;7242;50.858;6.586;2022-07-06T16:04:42;23.90;98.90
14317;DHT22;7242;50.858;6.586;2022-07-06T16:07:44;23.90;99.40
14317;DHT22;7242;50.858;6.586;2022-07-06T16:10:46;23.80;99.90
14317;DHT22;7242;50.858;6.586;2022-07-06T16:13:47;23.60;99.00
14317;DHT22;7242;50.858;6.586;2022-07-06T16:16:48;23.60;99.40
14317;DHT22;7242;50.858;6.586;2022-07-06T16:19:49;23.60;99.50
14317;DHT22;7242;50.858;6.586;2022-07-06T16:22:49;23.60;99.70
14317;DHT22;7242;50.858;6.586;2022-07-06T16:25:50;23.60;99.50
14317;DHT22;7242;50.858;6.586;2022-07-06T16:28:51;23.60;99.70
14317;DHT22;7242;50.858;6.586;2022-07-06T16:31:52;23.70;99.90
14317;DHT22;7242;50.858;6.586;2022-07-06T16:34:52;23.80;99.60
14317;DHT22;7242;50.858;6.586;2022-07-06T16:37:53;23.80;99.60
14317;DHT22;7242;50.858;6.586;2022-07-06T16:40:55;23.80;99.90
14317;DHT22;7242;50.858;6.586;2022-07-06T16:43:56;23.80;99.90
14317;DHT22;7242;50.858;6.586;2022-07-06T16:46:57;23.70;99.90
14317;DHT22;7242;50.858;6.586;2022-07-06T16:49:57;23.60;99.90
14317;DHT22;7242;50.858;6.586;2022-07-06T16:52:58;23.60;99.90
14317;DHT22;7242;50.858;6.586;2022-07-06T16:55:59;22.50;99.90
14317;DHT22;7242;50.858;6.586;2022-07-06T16:59:00;23.70;99.90
14317;DHT22;7242;50.858;6.586;2022-07-06T17:02:01;23.60;99.90
14317;DHT22;7242;50.858;6.586;2022-07-06T17:05:02;23.70;99.90
14317;DHT22;7242;50.858;6.586;2022-07-06T17:08:03;23.60;99.90
14317;DHT22;7242;50.858;6.586;2022-07-06T17:11:04;23.60;99.90
14317;DHT22;7242;50.858;6.586;2022-07-06T17:14:04;23.60;99.90
14317;DHT22;7242;50.858;6.586;2022-07-06T17:17:05;23.50;99.90
14317;DHT22;7242;50.858;6.586;2022-07-06T17:20:06;23.60;99.90
14317;DHT22;7242;50.858;6.586;2022-07-06T17:23:08;23.40;99.90
14317;DHT22;7242;50.858;6.586;2022-07-06T17:26:09;23.40;99.90
14317;DHT22;7242;50.858;6.586;2022-07-06T17:29:09;23.30;99.90
14317;DHT22;7242;50.858;6.586;2022-07-06T17:32:10;23.20;99.90
14317;DHT22;7242;50.858;6.586;2022-07-06T17:35:11;23.20;99.90
14317;DHT22;7242;50.858;6.586;2022-07-06T17:38:12;23.10;99.90
14317;DHT22;7242;50.858;6.586;2022-07-06T17:41:12;23.10;99.90
14317;DHT22;7242;50.858;6.586;2022-07-06T17:44:13;23.00;99.90
14317;DHT22;7242;50.858;6.586;2022-07-06T17:47:14;22.80;99.90
14317;DHT22;7242;50.858;6.586;2022-07-06T17:50:15;22.70;99.90
14317;DHT22;7242;50.858;6.586;2022-07-06T17:53:16;22.70;99.90
14317;DHT22;7242;50.858;6.586;2022-07-06T17:56:17;22.70;99.90
14317;DHT22;7242;50.858;6.586;2022-07-06T17:59:19;22.60;99.90
14317;DHT22;7242;50.858;6.586;2022-07-06T18:02:20;22.60;99.90
14317;DHT22;7242;50.858;6.586;2022-07-06T18:05:20;22.50;99.90
14317;DHT22;7242;50.858;6.586;2022-07-06T18:08:23;22.50;99.90
14317;DHT22;7242;50.858;6.586;2022-07-06T18:11:24;22.40;99.90
14317;DHT22;7242;50.858;6.586;2022-07-06T18:14:25;22.40;99.90
14317;DHT22;7242;50.858;6.586;2022-07-06T18:17:25;22.40;99.90
14317;DHT22;7242;50.858;6.586;2022-07-06T18:20:26;22.50;99.90
14317;DHT22;7242;50.858;6.586;2022-07-06T18:23:27;22.50;99.90
14317;DHT22;7242;50.858;6.586;2022-07-06T18:26:28;22.60;99.90
14317;DHT22;7242;50.858;6.586;2022-07-06T18:29:28;22.60;99.90
14317;DHT22;7242;50.858;6.586;2022-07-06T18:32:30;22.60;99.90
14317;DHT22;7242;50.858;6.586;2022-07-06T18:35:30;22.60;99.90
14317;DHT22;7242;50.858;6.586;2022-07-06T18:38:31;22.60;99.90
14317;DHT22;7242;50.858;6.586;2022-07-06T18:41:32;22.50;99.90
14317;DHT22;7242;50.858;6.586;2022-07-06T18:44:32;22.60;99.90
14317;DHT22;7242;50.858;6.586;2022-07-06T18:47:34;22.60;99.90
14317;DHT22;7242;50.858;6.586;2022-07-06T18:50:34;22.40;99.90
14317;DHT22;7242;50.858;6.586;2022-07-06T18:53:35;22.40;99.90
14317;DHT22;7242;50.858;6.586;2022-07-06T18:56:36;22.40;99.90
14317;DHT22;7242;50.858;6.586;2022-07-06T18:59:37;22.30;99.90
14317;DHT22;7242;50.858;6.586;2022-07-06T19:02:37;22.40;99.90
14317;DHT22;7242;50.858;6.586;2022-07-06T19:05:39;22.40;99.90
14317;DHT22;7242;50.858;6.586;2022-07-06T19:08:40;22.40;99.90
14317;DHT22;7242;50.858;6.586;2022-07-06T19:11:41;22.30;99.90
14317;DHT22;7242;50.858;6.586;2022-07-06T19:14:42;22.30;99.90
14317;DHT22;7242;50.858;6.586;2022-07-06T19:17:43;22.20;99.90
14317;DHT22;7242;50.858;6.586;2022-07-06T19:20:45;22.20;99.90
14317;DHT22;7242;50.858;6.586;2022-07-06T19:23:47;22.10;99.90
14317;DHT22;7242;50.858;6.586;2022-07-06T19:26:48;22.10;99.90
14317;DHT22;7242;50.858;6.586;2022-07-06T19:29:48;22.10;99.90
14317;DHT22;7242;50.858;6.586;2022-07-06T19:32:49;22.00;99.90